Terminal Aerodrome Forecast
Issued by NWS Louisville, KY

Home | Current Version | Previous Version | Text Only | Print | Product List | Glossary On
Versions: 1 2 3 4 5 6 7 8 9 10 11 12 13
900
FTUS43 KLMK 261725
TAFLEX
TAF
KLEX 261725Z 2618/2718 28009KT P6SM FEW070 FEW250
     FM270000 27005KT P6SM FEW060 SCT200
     FM270300 27004KT P6SM VCSH SCT050 BKN140
     FM271200 01004KT P6SM SCT040 BKN100
     FM271300 VRB03KT P6SM FEW035 SCT090=

USA.gov is the U.S. government's official web portal to all federal, state and local government web resources and services.